JBU1080 EGPH-KBOS
Flight info
| Callsign | JBU1080 |
|---|---|
| Flight time | N/A |
| Altitude | 34000 |
| Route | GOSAM DCT TRN DCT ERNAN DCT DOGAL/M077F350 NATD NEEKO/N0440F360 N622E TAFFY DCT AJJAY OOSHN5 |
| Aircraft | A21N/M-SDE2E3FGHIRWXY/LB1 |
Departure
| Time | 2026-04-24 14:59 |
|---|---|
| Airport | Edinburgh Airport (EGPH) |
Arrival
| Time | N/A |
|---|---|
| Airport | Boston Logan International Airport (KBOS) |
| Time | Latitude | Longitude | Altitude | Speed | Heading |
|---|---|---|---|---|---|
| 2026-04-24 14:23 | 55.94908 | -3.36497 | 109 ft | 0 kts | 147° |
| 2026-04-24 14:47 | 55.94928 | -3.36519 | 109 ft | 4 kts | 154° |
| 2026-04-24 14:47 | 55.94953 | -3.36534 | 109 ft | 4 kts | 180° |
| 2026-04-24 14:47 | 55.94972 | -3.36523 | 108 ft | 2 kts | 238° |
| 2026-04-24 14:48 | 55.94973 | -3.36521 | 108 ft | 0 kts | 238° |
| 2026-04-24 14:53 | 55.94971 | -3.36525 | 109 ft | 2 kts | 238° |
| 2026-04-24 14:53 | 55.94953 | -3.36580 | 109 ft | 8 kts | 239° |
| 2026-04-24 14:54 | 55.94916 | -3.36690 | 109 ft | 11 kts | 239° |
| 2026-04-24 14:54 | 55.94914 | -3.36822 | 108 ft | 11 kts | 293° |
| 2026-04-24 14:54 | 55.94910 | -3.36938 | 106 ft | 17 kts | 248° |
| 2026-04-24 14:54 | 55.94840 | -3.37150 | 108 ft | 22 kts | 239° |
| 2026-04-24 14:55 | 55.94764 | -3.37371 | 111 ft | 19 kts | 238° |
| 2026-04-24 14:55 | 55.94700 | -3.37561 | 113 ft | 17 kts | 240° |
| 2026-04-24 14:55 | 55.94644 | -3.37730 | 115 ft | 18 kts | 238° |
| 2026-04-24 14:55 | 55.94564 | -3.37962 | 116 ft | 26 kts | 239° |
| 2026-04-24 14:56 | 55.94460 | -3.38270 | 113 ft | 30 kts | 238° |
| 2026-04-24 14:56 | 55.94359 | -3.38568 | 117 ft | 26 kts | 239° |
| 2026-04-24 14:56 | 55.94284 | -3.38812 | 122 ft | 8 kts | 268° |
| 2026-04-24 14:56 | 55.94309 | -3.38881 | 121 ft | 7 kts | 322° |
| 2026-04-24 14:57 | 55.94316 | -3.38890 | 120 ft | 0 kts | 323° |
| 2026-04-24 14:57 | 55.94323 | -3.38900 | 118 ft | 5 kts | 323° |
| 2026-04-24 14:57 | 55.94376 | -3.38958 | 119 ft | 13 kts | 342° |
| 2026-04-24 14:57 | 55.94451 | -3.38861 | 119 ft | 15 kts | 60° |
| 2026-04-24 14:58 | 55.94558 | -3.38549 | 116 ft | 53 kts | 59° |
| 2026-04-24 14:58 | 55.94839 | -3.37715 | 114 ft | 105 kts | 59° |
| 2026-04-24 14:58 | 55.95315 | -3.36320 | 103 ft | 156 kts | 58° |
| 2026-04-24 14:58 | 55.95924 | -3.34564 | 358 ft | 168 kts | 58° |
| 2026-04-24 14:59 | 55.96639 | -3.32940 | 814 ft | 165 kts | 37° |
| 2026-04-24 14:59 | 55.97573 | -3.31718 | 1237 ft | 171 kts | 35° |
| 2026-04-24 14:59 | 55.98587 | -3.30452 | 1503 ft | 185 kts | 33° |
| 2026-04-24 14:59 | 55.99702 | -3.29139 | 1727 ft | 198 kts | 31° |
| 2026-04-24 15:00 | 56.00895 | -3.27807 | 2036 ft | 203 kts | 29° |
| 2026-04-24 15:00 | 56.02197 | -3.27394 | 2344 ft | 199 kts | 339° |
| 2026-04-24 15:00 | 56.03244 | -3.29020 | 2679 ft | 206 kts | 299° |
| 2026-04-24 15:00 | 56.03593 | -3.31481 | 3224 ft | 209 kts | 264° |
| 2026-04-24 15:01 | 56.03275 | -3.33984 | 3941 ft | 205 kts | 256° |
| 2026-04-24 15:01 | 56.02929 | -3.36541 | 4402 ft | 219 kts | 258° |
| 2026-04-24 15:01 | 56.02557 | -3.39327 | 4762 ft | 238 kts | 257° |
| 2026-04-24 15:01 | 56.02145 | -3.42254 | 5335 ft | 247 kts | 256° |
| 2026-04-24 15:02 | 56.01716 | -3.45247 | 6018 ft | 249 kts | 256° |
| 2026-04-24 15:02 | 56.01283 | -3.48257 | 6700 ft | 252 kts | 256° |
| 2026-04-24 15:02 | 56.00844 | -3.51311 | 7318 ft | 254 kts | 256° |
| 2026-04-24 15:02 | 56.00401 | -3.54386 | 7941 ft | 256 kts | 257° |
| 2026-04-24 15:03 | 55.99953 | -3.57495 | 8464 ft | 265 kts | 257° |
| 2026-04-24 15:03 | 55.99478 | -3.60764 | 8988 ft | 275 kts | 257° |
| 2026-04-24 15:03 | 55.98960 | -3.64068 | 9703 ft | 278 kts | 253° |
| 2026-04-24 15:03 | 55.98282 | -3.67286 | 10402 ft | 281 kts | 250° |
| 2026-04-24 15:04 | 55.97527 | -3.70570 | 10865 ft | 294 kts | 249° |
| 2026-04-24 15:04 | 55.96723 | -3.74052 | 11158 ft | 311 kts | 249° |
| 2026-04-24 15:04 | 55.95879 | -3.77719 | 11430 ft | 329 kts | 249° |
| 2026-04-24 15:04 | 55.94991 | -3.81602 | 11722 ft | 345 kts | 249° |
| 2026-04-24 15:05 | 55.94066 | -3.85658 | 11991 ft | 361 kts | 249° |
| 2026-04-24 15:05 | 55.93101 | -3.89907 | 12264 ft | 377 kts | 249° |
| 2026-04-24 15:05 | 55.92102 | -3.94318 | 12515 ft | 391 kts | 249° |
| 2026-04-24 15:05 | 55.91066 | -3.98873 | 12852 ft | 400 kts | 249° |
| 2026-04-24 15:06 | 55.90002 | -4.03488 | 13408 ft | 404 kts | 249° |
| 2026-04-24 15:06 | 55.88873 | -4.08096 | 13930 ft | 408 kts | 244° |
| 2026-04-24 15:06 | 55.87393 | -4.12388 | 14729 ft | 402 kts | 237° |
| 2026-04-24 15:06 | 55.85789 | -4.16380 | 15704 ft | 392 kts | 234° |
| 2026-04-24 15:07 | 55.84145 | -4.20180 | 16707 ft | 383 kts | 232° |
| 2026-04-24 15:07 | 55.82484 | -4.23855 | 17533 ft | 380 kts | 231° |
| 2026-04-24 15:07 | 55.80800 | -4.27499 | 18167 ft | 382 kts | 231° |
| 2026-04-24 15:07 | 55.79102 | -4.31144 | 18716 ft | 384 kts | 231° |
| 2026-04-24 15:08 | 55.77389 | -4.34820 | 19187 ft | 387 kts | 231° |
| 2026-04-24 15:08 | 55.75694 | -4.38461 | 19666 ft | 390 kts | 231° |
| 2026-04-24 15:08 | 55.73939 | -4.42241 | 20125 ft | 393 kts | 231° |
| 2026-04-24 15:08 | 55.72197 | -4.45998 | 20590 ft | 395 kts | 231° |
| 2026-04-24 15:09 | 55.70452 | -4.49761 | 21061 ft | 398 kts | 231° |
| 2026-04-24 15:09 | 55.68686 | -4.53570 | 21490 ft | 401 kts | 230° |
| 2026-04-24 15:09 | 55.66904 | -4.57406 | 21889 ft | 405 kts | 230° |
| 2026-04-24 15:09 | 55.65127 | -4.61226 | 22340 ft | 407 kts | 230° |
| 2026-04-24 15:10 | 55.63314 | -4.65113 | 22778 ft | 410 kts | 230° |
| 2026-04-24 15:10 | 55.61495 | -4.69008 | 23195 ft | 412 kts | 230° |
| 2026-04-24 15:10 | 55.59662 | -4.72928 | 23626 ft | 415 kts | 230° |
| 2026-04-24 15:10 | 55.57814 | -4.76872 | 23993 ft | 418 kts | 230° |
| 2026-04-24 15:11 | 55.55945 | -4.80855 | 24299 ft | 420 kts | 230° |
| 2026-04-24 15:11 | 55.54074 | -4.84835 | 24630 ft | 422 kts | 230° |
| 2026-04-24 15:11 | 55.52193 | -4.88830 | 24928 ft | 425 kts | 230° |
| 2026-04-24 15:11 | 55.50314 | -4.92814 | 25233 ft | 427 kts | 230° |
| 2026-04-24 15:12 | 55.48412 | -4.96842 | 25528 ft | 429 kts | 230° |
| 2026-04-24 15:12 | 55.44565 | -5.04968 | 26152 ft | 433 kts | 230° |
| 2026-04-24 15:12 | 55.42631 | -5.09040 | 26450 ft | 434 kts | 230° |
| 2026-04-24 15:13 | 55.40682 | -5.13141 | 26725 ft | 437 kts | 230° |
| 2026-04-24 15:13 | 55.38724 | -5.17249 | 26997 ft | 439 kts | 230° |
| 2026-04-24 15:13 | 55.36761 | -5.21363 | 27267 ft | 440 kts | 230° |
| 2026-04-24 15:13 | 55.34785 | -5.25497 | 27536 ft | 442 kts | 230° |
| 2026-04-24 15:14 | 55.32798 | -5.29648 | 27807 ft | 444 kts | 230° |
| 2026-04-24 15:14 | 55.30806 | -5.33803 | 28060 ft | 446 kts | 230° |
| 2026-04-24 15:14 | 55.28823 | -5.37931 | 28309 ft | 447 kts | 230° |
| 2026-04-24 15:14 | 55.26812 | -5.42108 | 28556 ft | 449 kts | 230° |
| 2026-04-24 15:15 | 55.24793 | -5.46297 | 28775 ft | 451 kts | 230° |
| 2026-04-24 15:15 | 55.22762 | -5.50502 | 29055 ft | 452 kts | 230° |
| 2026-04-24 15:15 | 55.20731 | -5.54701 | 29465 ft | 449 kts | 229° |
| 2026-04-24 15:15 | 55.18723 | -5.58843 | 29919 ft | 445 kts | 229° |
| 2026-04-24 15:16 | 55.16718 | -5.62975 | 30285 ft | 444 kts | 229° |
| 2026-04-24 15:16 | 55.14712 | -5.67100 | 30494 ft | 445 kts | 229° |
| 2026-04-24 15:16 | 55.12712 | -5.71209 | 30737 ft | 443 kts | 229° |
| 2026-04-24 15:16 | 55.10723 | -5.75286 | 31155 ft | 438 kts | 230° |
| 2026-04-24 15:17 | 55.08742 | -5.79340 | 31372 ft | 438 kts | 230° |
| 2026-04-24 15:17 | 55.06766 | -5.83377 | 31602 ft | 437 kts | 229° |
| 2026-04-24 15:17 | 55.04790 | -5.87406 | 31838 ft | 437 kts | 229° |
| 2026-04-24 15:17 | 55.02811 | -5.91436 | 31991 ft | 438 kts | 229° |
| 2026-04-24 15:18 | 55.00828 | -5.95468 | 32226 ft | 436 kts | 229° |
| 2026-04-24 15:18 | 54.98874 | -5.99432 | 32427 ft | 436 kts | 229° |
| 2026-04-24 15:18 | 54.96903 | -6.03426 | 32608 ft | 435 kts | 229° |
| 2026-04-24 15:18 | 54.94926 | -6.07426 | 32841 ft | 434 kts | 229° |
| 2026-04-24 15:19 | 54.92952 | -6.11411 | 33012 ft | 434 kts | 229° |
| 2026-04-24 15:19 | 54.90985 | -6.15377 | 33190 ft | 433 kts | 229° |
| 2026-04-24 15:19 | 54.89019 | -6.19334 | 33379 ft | 433 kts | 229° |
| 2026-04-24 15:19 | 54.87050 | -6.23292 | 33541 ft | 433 kts | 229° |
| 2026-04-24 15:20 | 54.85080 | -6.27244 | 33716 ft | 432 kts | 229° |
| 2026-04-24 15:20 | 54.83113 | -6.31183 | 33916 ft | 430 kts | 229° |
| 2026-04-24 15:20 | 54.81152 | -6.35104 | 34074 ft | 430 kts | 229° |
| 2026-04-24 15:20 | 54.79190 | -6.39023 | 34206 ft | 430 kts | 229° |
| 2026-04-24 15:21 | 54.75272 | -6.46827 | 34264 ft | 434 kts | 229° |
| 2026-04-24 15:21 | 54.71305 | -6.54703 | 34266 ft | 433 kts | 229° |
| 2026-04-24 15:22 | 54.67341 | -6.62548 | 34255 ft | 432 kts | 229° |
| 2026-04-24 15:23 | 54.61395 | -6.74265 | 34259 ft | 432 kts | 229° |
| 2026-04-24 15:23 | 54.55445 | -6.85936 | 34244 ft | 432 kts | 229° |
| 2026-04-24 15:25 | 54.46182 | -7.03997 | 34257 ft | 430 kts | 228° |
| 2026-04-24 15:26 | 54.35638 | -7.24389 | 34248 ft | 428 kts | 227° |
| 2026-04-24 15:27 | 54.30086 | -7.36365 | 34242 ft | 429 kts | 240° |
| 2026-04-24 15:27 | 54.27786 | -7.51068 | 34234 ft | 433 kts | 265° |
| 2026-04-24 15:29 | 54.27593 | -7.82140 | 34233 ft | 435 kts | 267° |
| 2026-04-24 15:31 | 54.27261 | -8.16580 | 34222 ft | 436 kts | 266° |
| 2026-04-24 15:33 | 54.26687 | -8.59852 | 34213 ft | 438 kts | 265° |
| 2026-04-24 15:34 | 54.26267 | -8.85943 | 34210 ft | 438 kts | 265° |
| 2026-04-24 15:35 | 54.25795 | -9.11908 | 34201 ft | 439 kts | 265° |
| 2026-04-24 15:36 | 54.25588 | -9.22363 | 34194 ft | 440 kts | 264° |
| 2026-04-24 15:36 | 54.25261 | -9.38055 | 34195 ft | 440 kts | 264° |
| 2026-04-24 15:37 | 54.25032 | -9.48513 | 34193 ft | 440 kts | 264° |
| 2026-04-24 15:37 | 54.24795 | -9.58896 | 34192 ft | 440 kts | 264° |
| 2026-04-24 15:38 | 54.24549 | -9.69364 | 34189 ft | 440 kts | 263° |
| 2026-04-24 15:38 | 54.24292 | -9.79825 | 34185 ft | 440 kts | 263° |
| 2026-04-24 15:39 | 54.24027 | -9.90287 | 34190 ft | 440 kts | 263° |
| 2026-04-24 15:39 | 54.23800 | -9.98983 | 34192 ft | 440 kts | 263° |
| 2026-04-24 15:40 | 54.23518 | -10.09429 | 34190 ft | 440 kts | 263° |
| 2026-04-24 15:40 | 54.23227 | -10.19887 | 34195 ft | 441 kts | 262° |
| 2026-04-24 15:41 | 54.22925 | -10.30375 | 34187 ft | 441 kts | 262° |
| 2026-04-24 15:41 | 54.22617 | -10.40789 | 34184 ft | 441 kts | 262° |
| 2026-04-24 15:42 | 54.22298 | -10.51263 | 34183 ft | 441 kts | 262° |
| 2026-04-24 15:42 | 54.21971 | -10.61719 | 34182 ft | 441 kts | 262° |
| 2026-04-24 15:43 | 54.21634 | -10.72190 | 34190 ft | 442 kts | 261° |
| 2026-04-24 15:43 | 54.21286 | -10.82701 | 34183 ft | 443 kts | 261° |
| 2026-04-24 15:44 | 54.20931 | -10.93149 | 34184 ft | 443 kts | 261° |
| 2026-04-24 15:44 | 54.20566 | -11.03657 | 34184 ft | 443 kts | 261° |
| 2026-04-24 15:45 | 54.20192 | -11.14157 | 34181 ft | 443 kts | 261° |
| 2026-04-24 15:45 | 54.19808 | -11.24653 | 34183 ft | 442 kts | 261° |
| 2026-04-24 15:46 | 54.19417 | -11.35083 | 34179 ft | 442 kts | 261° |
| 2026-04-24 15:46 | 54.19017 | -11.45548 | 34182 ft | 442 kts | 261° |
| 2026-04-24 15:47 | 54.18606 | -11.56021 | 34176 ft | 441 kts | 261° |
| 2026-04-24 15:47 | 54.18187 | -11.66478 | 34176 ft | 441 kts | 261° |
| 2026-04-24 15:48 | 54.17759 | -11.76933 | 34164 ft | 443 kts | 261° |
| 2026-04-24 15:48 | 54.17314 | -11.87490 | 34178 ft | 449 kts | 261° |
| 2026-04-24 15:49 | 54.16857 | -11.98176 | 34173 ft | 452 kts | 261° |
| 2026-04-24 15:49 | 54.16395 | -12.08862 | 34173 ft | 451 kts | 261° |
| 2026-04-24 15:50 | 54.15922 | -12.19521 | 34167 ft | 450 kts | 261° |
| 2026-04-24 15:50 | 54.15438 | -12.30183 | 34172 ft | 452 kts | 261° |
| 2026-04-24 15:51 | 54.14938 | -12.40937 | 34166 ft | 457 kts | 261° |
| 2026-04-24 15:51 | 54.14432 | -12.51673 | 34165 ft | 457 kts | 261° |
| 2026-04-24 15:52 | 54.13914 | -12.62472 | 34162 ft | 457 kts | 261° |
| 2026-04-24 15:52 | 54.13386 | -12.73264 | 34162 ft | 457 kts | 261° |
| 2026-04-24 15:53 | 54.12846 | -12.84070 | 34153 ft | 459 kts | 260° |
| 2026-04-24 15:53 | 54.12289 | -12.94995 | 34157 ft | 463 kts | 260° |
| 2026-04-24 15:54 | 54.11724 | -13.05945 | 34151 ft | 463 kts | 260° |
| 2026-04-24 15:54 | 54.11154 | -13.16798 | 34157 ft | 463 kts | 260° |
| 2026-04-24 15:55 | 54.10569 | -13.27712 | 34143 ft | 463 kts | 260° |
| 2026-04-24 15:55 | 54.09973 | -13.38648 | 34146 ft | 464 kts | 259° |
| 2026-04-24 15:56 | 54.09362 | -13.49661 | 34143 ft | 467 kts | 259° |
| 2026-04-24 15:56 | 54.08742 | -13.60668 | 34139 ft | 467 kts | 259° |
| 2026-04-24 15:57 | 54.08113 | -13.71673 | 34134 ft | 466 kts | 259° |
| 2026-04-24 15:57 | 54.07475 | -13.82660 | 34134 ft | 466 kts | 259° |
| 2026-04-24 15:58 | 54.06827 | -13.93613 | 34128 ft | 469 kts | 259° |
| 2026-04-24 15:58 | 54.06162 | -14.04685 | 34126 ft | 471 kts | 259° |
| 2026-04-24 15:59 | 54.05486 | -14.15778 | 34124 ft | 471 kts | 259° |
| 2026-04-24 15:59 | 54.04801 | -14.26856 | 34116 ft | 471 kts | 259° |
| 2026-04-24 16:00 | 54.04103 | -14.37951 | 34161 ft | 471 kts | 259° |
| 2026-04-24 16:00 | 54.03395 | -14.49003 | 34113 ft | 475 kts | 259° |
| 2026-04-24 16:01 | 54.02671 | -14.60170 | 34116 ft | 475 kts | 259° |
| 2026-04-24 16:01 | 54.01938 | -14.71326 | 34105 ft | 475 kts | 259° |
| 2026-04-24 16:02 | 54.01196 | -14.82472 | 34104 ft | 475 kts | 258° |
| 2026-04-24 16:02 | 54.00487 | -14.93639 | 34107 ft | 478 kts | 263° |
| 2026-04-24 16:03 | 54.00578 | -14.99327 | 34100 ft | 484 kts | 274° |
| 2026-04-24 16:03 | 54.01264 | -15.04972 | 34101 ft | 489 kts | 284° |
| 2026-04-24 16:03 | 54.03469 | -15.15945 | 34092 ft | 492 kts | 289° |
| 2026-04-24 16:04 | 54.05945 | -15.26816 | 34091 ft | 492 kts | 290° |
| 2026-04-24 16:04 | 54.08414 | -15.37619 | 34088 ft | 492 kts | 289° |
| 2026-04-24 16:05 | 54.12056 | -15.53967 | 34095 ft | 493 kts | 289° |
| 2026-04-24 16:06 | 54.15673 | -15.70472 | 34083 ft | 495 kts | 289° |
| 2026-04-24 16:07 | 54.19267 | -15.86999 | 34083 ft | 495 kts | 289° |
| 2026-04-24 16:07 | 54.22842 | -16.03566 | 34078 ft | 495 kts | 289° |
| 2026-04-24 16:08 | 54.26377 | -16.20078 | 34075 ft | 496 kts | 288° |
| 2026-04-24 16:09 | 54.29917 | -16.36747 | 34075 ft | 497 kts | 288° |
| 2026-04-24 16:09 | 54.32265 | -16.47880 | 34074 ft | 497 kts | 288° |
| 2026-04-24 16:11 | 54.38090 | -16.75768 | 34071 ft | 497 kts | 288° |
| 2026-04-24 16:11 | 54.40403 | -16.86954 | 34070 ft | 497 kts | 288° |
| 2026-04-24 16:12 | 54.43854 | -17.03752 | 34064 ft | 497 kts | 288° |
| 2026-04-24 16:13 | 54.47268 | -17.20515 | 34062 ft | 497 kts | 288° |
| 2026-04-24 16:14 | 54.51799 | -17.42987 | 34094 ft | 497 kts | 287° |
| 2026-04-24 16:14 | 54.55183 | -17.59938 | 34056 ft | 499 kts | 287° |
| 2026-04-24 16:15 | 54.58547 | -17.76936 | 34053 ft | 500 kts | 287° |
| 2026-04-24 16:16 | 54.61888 | -17.93964 | 34051 ft | 500 kts | 287° |
| 2026-04-24 16:17 | 54.67408 | -18.22438 | 34045 ft | 501 kts | 287° |
| 2026-04-24 16:18 | 54.71770 | -18.45236 | 34052 ft | 501 kts | 286° |
| 2026-04-24 16:19 | 54.75022 | -18.62414 | 34045 ft | 501 kts | 286° |
| 2026-04-24 16:20 | 54.78251 | -18.79629 | 34045 ft | 501 kts | 286° |
| 2026-04-24 16:20 | 54.81459 | -18.96890 | 34031 ft | 502 kts | 286° |
| 2026-04-24 16:21 | 54.84644 | -19.14182 | 34035 ft | 502 kts | 285° |
| 2026-04-24 16:22 | 54.86757 | -19.25746 | 34032 ft | 502 kts | 285° |
| 2026-04-24 16:22 | 54.89889 | -19.43020 | 34046 ft | 502 kts | 285° |
| 2026-04-24 16:23 | 54.91975 | -19.54617 | 34035 ft | 503 kts | 285° |
| 2026-04-24 16:24 | 54.95086 | -19.72046 | 34029 ft | 503 kts | 285° |
| 2026-04-24 16:24 | 54.97146 | -19.83683 | 34024 ft | 503 kts | 285° |
| 2026-04-24 16:25 | 54.99196 | -19.95336 | 34030 ft | 503 kts | 285° |
| 2026-04-24 16:25 | 55.01112 | -20.07055 | 34061 ft | 502 kts | 282° |
| 2026-04-24 16:26 | 55.03592 | -20.24720 | 34038 ft | 503 kts | 281° |
| 2026-04-24 16:27 | 55.06061 | -20.42514 | 34030 ft | 503 kts | 281° |
| 2026-04-24 16:27 | 55.07716 | -20.54378 | 34029 ft | 503 kts | 281° |
| 2026-04-24 16:28 | 55.09087 | -20.64248 | 34012 ft | 503 kts | 281° |
| 2026-04-24 16:28 | 55.11537 | -20.82067 | 34027 ft | 503 kts | 281° |
| 2026-04-24 16:29 | 55.13143 | -20.93874 | 34020 ft | 503 kts | 281° |
| 2026-04-24 16:30 | 55.16349 | -21.17707 | 34020 ft | 503 kts | 280° |
| 2026-04-24 16:30 | 55.17933 | -21.29633 | 34021 ft | 503 kts | 280° |
| 2026-04-24 16:31 | 55.19506 | -21.41565 | 34026 ft | 503 kts | 280° |
| 2026-04-24 16:31 | 55.21067 | -21.53512 | 34015 ft | 503 kts | 280° |
| 2026-04-24 16:32 | 55.22618 | -21.65469 | 34009 ft | 503 kts | 280° |
| 2026-04-24 16:32 | 55.24154 | -21.77417 | 34018 ft | 503 kts | 280° |
| 2026-04-24 16:33 | 55.25668 | -21.89294 | 34018 ft | 503 kts | 280° |
| 2026-04-24 16:33 | 55.27181 | -22.01266 | 34015 ft | 503 kts | 280° |
| 2026-04-24 16:34 | 55.28682 | -22.13241 | 34016 ft | 503 kts | 279° |
| 2026-04-24 16:34 | 55.30173 | -22.25241 | 34009 ft | 503 kts | 279° |
| 2026-04-24 16:35 | 55.31653 | -22.37249 | 33987 ft | 503 kts | 279° |
| 2026-04-24 16:35 | 55.33120 | -22.49267 | 34015 ft | 503 kts | 279° |
| 2026-04-24 16:36 | 55.33850 | -22.55280 | 34137 ft | 503 kts | 279° |
| 2026-04-24 16:36 | 55.34575 | -22.61282 | 34332 ft | 501 kts | 279° |
| 2026-04-24 16:36 | 55.35294 | -22.67258 | 34527 ft | 499 kts | 279° |
| 2026-04-24 16:36 | 55.36009 | -22.73219 | 34749 ft | 497 kts | 279° |
| 2026-04-24 16:37 | 55.36717 | -22.79161 | 34903 ft | 496 kts | 279° |
| 2026-04-24 16:37 | 55.37421 | -22.85093 | 34995 ft | 497 kts | 279° |
| 2026-04-24 16:37 | 55.38821 | -22.96990 | 35004 ft | 501 kts | 279° |
| 2026-04-24 16:38 | 55.40222 | -23.08981 | 35010 ft | 500 kts | 279° |
| 2026-04-24 16:38 | 55.41610 | -23.20968 | 35009 ft | 500 kts | 278° |
| 2026-04-24 16:39 | 55.42985 | -23.32960 | 35001 ft | 500 kts | 279° |
| 2026-04-24 16:39 | 55.44349 | -23.44962 | 35007 ft | 500 kts | 279° |
| 2026-04-24 16:40 | 55.45705 | -23.57000 | 35001 ft | 500 kts | 278° |
| 2026-04-24 16:40 | 55.47046 | -23.69028 | 35002 ft | 500 kts | 278° |